Terminal Aerodrome Forecast
Issued by NWS

Home | Current Version | Previous Version | Text Only | Print | Product List | Glossary On
Versions: 1 2 3 4 5 6 7 8 9 10 11 12 13 14 15 16 17 18 19 20
000
FTUS43 KIND 222300
TAFLAF
TAF
KLAF 222320Z 2300/2324 23006KT P6SM SCT250
     FM230700 28004KT 6SM HZ VCTS BKN040CB
     FM231100 36011KT P6SM SCT050 BKN250
      AMD LTD TO CLD VIS AND WIND 2301/2313=

USA.gov is the U.S. government's official web portal to all federal, state and local government web resources and services.